createdAt,value
2022-10-22T00:00:09.615Z,997.77
2022-10-22T00:01:09.602Z,997.85
2022-10-22T00:02:09.595Z,997.78
2022-10-22T00:03:09.643Z,997.75
2022-10-22T00:04:09.575Z,997.77
2022-10-22T00:05:09.592Z,997.73
2022-10-22T00:06:09.555Z,997.76
2022-10-22T00:07:09.544Z,997.77
2022-10-22T00:08:09.535Z,997.80
2022-10-22T00:09:09.628Z,997.81
2022-10-22T00:10:09.514Z,997.82
2022-10-22T00:11:09.526Z,997.82
2022-10-22T00:12:09.496Z,997.81
2022-10-22T00:13:09.483Z,997.76
2022-10-22T00:14:09.474Z,997.75
2022-10-22T00:15:09.458Z,997.78
2022-10-22T00:16:09.456Z,997.81
2022-10-22T00:17:11.506Z,997.77
2022-10-22T00:18:09.425Z,997.79
2022-10-22T00:19:09.428Z,997.81
2022-10-22T00:20:09.406Z,997.79
2022-10-22T00:21:09.398Z,997.75
2022-10-22T00:22:09.395Z,997.79
2022-10-22T00:23:09.420Z,997.76
2022-10-22T00:24:09.367Z,997.78
2022-10-22T00:25:09.358Z,997.73
2022-10-22T00:26:09.348Z,997.74
2022-10-22T00:27:09.338Z,997.74
2022-10-22T00:28:09.336Z,997.71
2022-10-22T00:29:09.339Z,997.78
2022-10-22T00:30:09.318Z,997.70
2022-10-22T00:31:09.298Z,997.71
2022-10-22T00:32:09.293Z,997.70
2022-10-22T00:33:09.277Z,997.67
2022-10-22T00:34:09.269Z,997.66
2022-10-22T00:35:09.361Z,997.72
2022-10-22T00:36:09.248Z,997.67
2022-10-22T00:37:09.230Z,997.72
2022-10-22T00:38:09.229Z,997.65
2022-10-22T00:39:09.220Z,997.68
2022-10-22T00:40:09.213Z,997.60
2022-10-22T00:41:09.221Z,997.58
2022-10-22T00:42:09.189Z,997.60
2022-10-22T00:43:09.173Z,997.56
2022-10-22T00:44:09.169Z,997.56
2022-10-22T00:45:09.152Z,997.56
2022-10-22T00:46:09.142Z,997.49
2022-10-22T00:47:09.160Z,997.52
2022-10-22T00:48:09.122Z,997.47
2022-10-22T00:49:09.113Z,997.49
2022-10-22T00:50:09.103Z,997.48
2022-10-22T00:51:09.094Z,997.45
2022-10-22T00:52:09.084Z,997.46
2022-10-22T00:53:09.103Z,997.44
2022-10-22T00:54:09.066Z,997.40
2022-10-22T00:55:09.047Z,997.42
2022-10-22T00:56:09.046Z,997.40
2022-10-22T00:57:09.032Z,997.40
2022-10-22T00:58:09.024Z,997.36
2022-10-22T01:00:09.003Z,997.35
2022-10-22T01:01:09.070Z,997.37
2022-10-22T01:02:08.985Z,997.40
2022-10-22T01:03:08.965Z,997.33
2022-10-22T01:04:08.965Z,997.38
2022-10-22T01:05:08.982Z,997.30
2022-10-22T01:06:08.944Z,997.28
2022-10-22T01:07:08.934Z,997.26
2022-10-22T01:08:08.915Z,997.28
2022-10-22T01:09:08.963Z,997.30
2022-10-22T01:10:08.897Z,997.28
2022-10-22T01:11:08.919Z,997.24
2022-10-22T01:12:08.877Z,997.31
2022-10-22T01:13:08.867Z,997.31
2022-10-22T01:14:08.857Z,997.27
2022-10-22T01:15:08.855Z,997.27
2022-10-22T01:16:08.842Z,997.24
2022-10-22T01:17:08.890Z,997.20
2022-10-22T01:18:08.818Z,997.21
2022-10-22T01:19:08.799Z,997.18
2022-10-22T01:20:08.797Z,997.18
2022-10-22T01:21:08.779Z,997.17
2022-10-22T01:22:08.769Z,997.15
2022-10-22T01:23:08.786Z,997.16
2022-10-22T01:24:08.756Z,997.14
2022-10-22T01:25:08.740Z,997.10
2022-10-22T01:26:08.731Z,997.10
2022-10-22T01:27:08.717Z,997.12
2022-10-22T01:28:08.712Z,997.10
2022-10-22T01:29:08.729Z,997.10
2022-10-22T01:30:08.711Z,997.10
2022-10-22T01:31:08.683Z,997.13
2022-10-22T01:32:08.679Z,997.09
2022-10-22T01:33:08.661Z,997.10
2022-10-22T01:34:08.651Z,997.13
2022-10-22T01:35:08.710Z,997.11
2022-10-22T01:36:08.631Z,997.06
2022-10-22T01:37:08.622Z,997.13
2022-10-22T01:38:08.612Z,997.09
2022-10-22T01:39:08.600Z,997.08
2022-10-22T01:40:08.583Z,997.08
2022-10-22T01:41:08.612Z,997.11
2022-10-22T01:42:08.561Z,997.13
2022-10-22T01:43:08.562Z,997.06
2022-10-22T01:44:08.546Z,997.06
2022-10-22T01:45:08.544Z,997.03
2022-10-22T01:46:08.527Z,997.05
2022-10-22T01:47:08.544Z,997.07
2022-10-22T01:48:08.505Z,997.02
2022-10-22T01:49:08.494Z,997.02
2022-10-22T01:50:08.475Z,997.02
2022-10-22T01:51:08.477Z,996.99
2022-10-22T01:52:08.464Z,996.99
2022-10-22T01:53:08.484Z,996.96
2022-10-22T01:54:08.470Z,996.92
2022-10-22T01:55:08.437Z,996.97
2022-10-22T01:56:08.425Z,996.91
2022-10-22T01:57:08.427Z,996.97
2022-10-22T01:58:08.396Z,996.93
2022-10-22T01:59:08.428Z,996.87
2022-10-22T02:00:08.377Z,996.92
2022-10-22T02:01:08.404Z,996.93
2022-10-22T02:02:08.359Z,996.90
2022-10-22T02:03:08.358Z,996.92
2022-10-22T02:04:08.336Z,996.92
2022-10-22T02:05:08.378Z,996.87
2022-10-22T02:06:08.324Z,996.88
2022-10-22T02:07:08.308Z,996.83
2022-10-22T02:08:08.297Z,996.83
2022-10-22T02:09:08.341Z,996.84
2022-10-22T02:10:08.277Z,996.84
2022-10-22T02:11:08.313Z,996.86
2022-10-22T02:12:08.263Z,996.81
2022-10-22T02:13:08.250Z,996.83
2022-10-22T02:14:08.239Z,996.86
2022-10-22T02:15:08.229Z,996.85
2022-10-22T02:16:08.220Z,996.86
2022-10-22T02:17:08.248Z,996.83
2022-10-22T02:18:08.199Z,996.81
2022-10-22T02:19:08.190Z,996.75
2022-10-22T02:20:08.170Z,996.77
2022-10-22T02:22:08.153Z,996.71
2022-10-22T02:23:08.170Z,996.76
2022-10-22T02:24:08.134Z,996.75
2022-10-22T02:25:08.133Z,996.77
2022-10-22T02:26:08.121Z,996.74
2022-10-22T02:27:08.109Z,996.76
2022-10-22T02:28:08.092Z,996.79
2022-10-22T02:29:08.110Z,996.74
2022-10-22T02:30:08.126Z,996.73
2022-10-22T02:31:08.065Z,996.68
2022-10-22T02:32:08.052Z,996.69
2022-10-22T02:33:08.043Z,996.57
2022-10-22T02:34:08.032Z,996.64
2022-10-22T02:35:08.062Z,996.60
2022-10-22T02:36:08.013Z,996.61
2022-10-22T02:37:08.005Z,996.64
2022-10-22T02:38:07.994Z,996.59
2022-10-22T02:39:08.028Z,996.59
2022-10-22T02:40:07.964Z,996.58
2022-10-22T02:41:08.024Z,996.58
2022-10-22T02:42:07.954Z,996.53
2022-10-22T02:43:07.946Z,996.54
2022-10-22T02:44:07.936Z,996.56
2022-10-22T02:45:07.923Z,996.53
2022-10-22T02:46:07.916Z,996.55
2022-10-22T02:47:07.926Z,996.52
2022-10-22T02:48:07.929Z,996.44
2022-10-22T02:49:07.886Z,996.51
2022-10-22T02:50:09.634Z,996.48
2022-10-22T02:51:07.866Z,996.52
2022-10-22T02:52:07.845Z,996.55
2022-10-22T02:53:07.868Z,996.48
2022-10-22T02:54:07.836Z,996.47
2022-10-22T02:55:07.817Z,996.56
2022-10-22T02:56:07.808Z,996.48
2022-10-22T02:57:07.857Z,996.49
2022-10-22T02:58:07.786Z,996.45
2022-10-22T02:59:07.807Z,996.50
2022-10-22T03:00:07.766Z,996.44
2022-10-22T03:01:09.426Z,996.39
2022-10-22T03:02:07.753Z,996.46
2022-10-22T03:03:07.744Z,996.45
2022-10-22T03:04:07.727Z,996.42
2022-10-22T03:05:07.746Z,996.44
2022-10-22T03:06:07.708Z,996.42
2022-10-22T03:07:07.699Z,996.41
2022-10-22T03:08:07.686Z,996.41
2022-10-22T03:09:07.717Z,996.39
2022-10-22T03:10:07.658Z,996.36
2022-10-22T03:11:07.690Z,996.39
2022-10-22T03:12:07.641Z,996.32
2022-10-22T03:13:07.631Z,996.37
2022-10-22T03:14:07.620Z,996.35
2022-10-22T03:15:07.610Z,996.35
2022-10-22T03:16:07.600Z,996.35
2022-10-22T03:17:07.628Z,996.31
2022-10-22T03:18:07.579Z,996.36
2022-10-22T03:19:07.570Z,996.35
2022-10-22T03:20:07.569Z,996.34
2022-10-22T03:21:07.562Z,996.35
2022-10-22T03:22:07.539Z,996.34
2022-10-22T03:23:07.552Z,996.30
2022-10-22T03:24:07.522Z,996.30
2022-10-22T03:25:07.514Z,996.30
2022-10-22T03:26:07.495Z,996.28
2022-10-22T03:27:07.493Z,996.32
2022-10-22T03:28:07.486Z,996.37
2022-10-22T03:29:07.502Z,996.30
2022-10-22T03:30:07.455Z,996.37
2022-10-22T03:31:07.455Z,996.32
2022-10-22T03:32:07.441Z,996.33
2022-10-22T03:33:07.423Z,996.31
2022-10-22T03:34:07.414Z,996.32
2022-10-22T03:35:07.437Z,996.30
2022-10-22T03:36:08.088Z,996.26
2022-10-22T03:37:07.387Z,996.36
2022-10-22T03:38:07.373Z,996.34
2022-10-22T03:39:07.366Z,996.32
2022-10-22T03:40:07.357Z,996.28
2022-10-22T03:41:07.387Z,996.30
2022-10-22T03:42:07.325Z,996.31
2022-10-22T03:43:07.328Z,996.27
2022-10-22T03:44:07.318Z,996.33
2022-10-22T03:45:07.307Z,996.25
2022-10-22T03:46:07.286Z,996.28
2022-10-22T03:47:07.317Z,996.28
2022-10-22T03:48:07.275Z,996.25
2022-10-22T03:49:07.265Z,996.27
2022-10-22T03:50:07.253Z,996.25
2022-10-22T03:51:07.237Z,996.29
2022-10-22T03:52:07.229Z,996.24
2022-10-22T03:53:07.255Z,996.25
2022-10-22T03:54:07.210Z,996.21
2022-10-22T03:55:07.202Z,996.22
2022-10-22T03:56:07.188Z,996.24
2022-10-22T03:57:07.182Z,996.22
2022-10-22T03:58:07.172Z,996.25
2022-10-22T03:59:07.192Z,996.23
2022-10-22T04:00:07.162Z,996.19
2022-10-22T04:01:07.181Z,996.25
2022-10-22T04:02:07.120Z,996.18
2022-10-22T04:03:07.124Z,996.18
2022-10-22T04:04:07.110Z,996.14
2022-10-22T04:05:07.167Z,996.14
2022-10-22T04:06:07.092Z,996.11
2022-10-22T04:07:07.081Z,996.16
2022-10-22T04:08:07.061Z,996.10
2022-10-22T04:09:07.087Z,996.11
2022-10-22T04:10:07.050Z,996.07
2022-10-22T04:11:07.061Z,996.07
2022-10-22T04:12:07.025Z,996.05
2022-10-22T04:13:07.023Z,996.08
2022-10-22T04:14:07.001Z,996.05
2022-10-22T04:15:07.004Z,996.06
2022-10-22T04:16:06.983Z,996.01
2022-10-22T04:17:07.005Z,996.03
2022-10-22T04:18:06.962Z,996.01
2022-10-22T04:19:06.953Z,996.00
2022-10-22T04:20:06.935Z,996.01
2022-10-22T04:21:06.934Z,996.07
2022-10-22T04:22:06.913Z,996.00
2022-10-22T04:23:06.935Z,996.02
2022-10-22T04:24:06.904Z,996.05
2022-10-22T04:25:06.893Z,996.04
2022-10-22T04:26:06.886Z,996.06
2022-10-22T04:27:06.874Z,995.98
2022-10-22T04:28:06.858Z,996.04
2022-10-22T04:29:07.411Z,996.03
2022-10-22T04:30:06.833Z,996.04
2022-10-22T04:31:06.836Z,996.04
2022-10-22T04:32:06.816Z,996.07
2022-10-22T04:33:06.810Z,996.04
2022-10-22T04:34:06.796Z,996.07
2022-10-22T04:35:06.829Z,996.02
2022-10-22T04:36:07.464Z,996.06
2022-10-22T04:37:06.775Z,996.06
2022-10-22T04:38:06.749Z,996.09
2022-10-22T04:39:06.778Z,996.08
2022-10-22T04:40:06.740Z,996.01
2022-10-22T04:41:06.756Z,995.96
2022-10-22T04:42:06.718Z,996.00
2022-10-22T04:43:06.708Z,995.95
2022-10-22T04:44:06.687Z,995.93
2022-10-22T04:45:06.698Z,996.00
2022-10-22T04:46:06.680Z,995.97
2022-10-22T04:47:06.719Z,996.01
2022-10-22T04:48:06.648Z,995.94
2022-10-22T04:49:06.648Z,995.94
2022-10-22T04:50:06.630Z,995.97
2022-10-22T04:51:06.630Z,995.99
2022-10-22T04:52:06.625Z,995.93
2022-10-22T04:53:06.643Z,996.00
2022-10-22T04:54:06.591Z,995.94
2022-10-22T04:55:06.592Z,995.98
2022-10-22T04:56:06.571Z,995.95
2022-10-22T04:57:06.569Z,995.99
2022-10-22T04:58:06.552Z,995.96
2022-10-22T04:59:06.569Z,995.94
2022-10-22T05:00:06.524Z,995.98
2022-10-22T05:01:06.582Z,995.94
2022-10-22T05:02:06.514Z,995.98
2022-10-22T05:03:06.500Z,995.94
2022-10-22T05:04:06.491Z,995.95
2022-10-22T05:05:06.535Z,995.94
2022-10-22T05:06:06.510Z,995.96
2022-10-22T05:07:06.462Z,995.95
2022-10-22T05:08:06.446Z,996.00
2022-10-22T05:09:06.529Z,995.98
2022-10-22T05:10:06.433Z,995.93
2022-10-22T05:11:06.448Z,995.97
2022-10-22T05:12:06.403Z,995.95
2022-10-22T05:13:06.395Z,995.97
2022-10-22T05:14:06.384Z,995.95
2022-10-22T05:15:06.375Z,995.94
2022-10-22T05:16:06.372Z,996.01
2022-10-22T05:17:06.385Z,996.01
2022-10-22T05:18:06.345Z,995.95
2022-10-22T05:19:06.336Z,995.96
2022-10-22T05:20:06.325Z,995.93
2022-10-22T05:21:06.316Z,995.93
2022-10-22T05:22:06.305Z,995.94
2022-10-22T05:23:06.338Z,995.97
2022-10-22T05:24:06.286Z,995.95
2022-10-22T05:25:06.277Z,995.98
2022-10-22T05:26:06.263Z,995.98
2022-10-22T05:27:06.344Z,996.00
2022-10-22T05:28:06.243Z,995.99
2022-10-22T05:29:06.279Z,995.97
2022-10-22T05:30:06.216Z,995.94
2022-10-22T05:31:06.216Z,995.94
2022-10-22T05:32:06.207Z,995.98
2022-10-22T05:33:06.198Z,995.96
2022-10-22T05:34:06.184Z,995.94
2022-10-22T05:35:06.209Z,995.89
2022-10-22T05:36:06.801Z,995.92
2022-10-22T05:37:06.167Z,995.88
2022-10-22T05:38:06.142Z,995.89
2022-10-22T05:39:06.142Z,995.94
2022-10-22T05:40:19.319Z,995.92
2022-10-22T05:41:07.148Z,995.86
2022-10-22T05:42:07.540Z,995.89
2022-10-22T05:43:06.053Z,995.87
2022-10-22T05:44:06.027Z,995.87
2022-10-22T05:45:06.020Z,995.84
2022-10-22T05:46:06.009Z,995.85
2022-10-22T05:47:06.020Z,995.88
2022-10-22T05:48:05.980Z,995.83
2022-10-22T05:49:05.989Z,995.81
2022-10-22T05:50:05.964Z,995.83
2022-10-22T05:51:05.952Z,995.84
2022-10-22T05:52:05.950Z,995.80
2022-10-22T05:53:06.033Z,995.79
2022-10-22T05:54:05.926Z,995.80
2022-10-22T05:55:05.912Z,995.79
2022-10-22T05:56:05.903Z,995.79
2022-10-22T05:57:05.951Z,995.79
2022-10-22T05:58:05.935Z,995.82
2022-10-22T05:59:05.972Z,995.78
2022-10-22T06:00:05.925Z,995.75
2022-10-22T06:01:05.862Z,995.75
2022-10-22T06:02:05.931Z,995.73
2022-10-22T06:03:05.834Z,995.72
2022-10-22T06:04:05.823Z,995.73
2022-10-22T06:05:05.839Z,995.72
2022-10-22T06:06:05.810Z,995.74
2022-10-22T06:07:05.786Z,995.68
2022-10-22T06:08:05.778Z,995.75
2022-10-22T06:09:05.815Z,995.71
2022-10-22T06:10:05.763Z,995.77
2022-10-22T06:11:05.785Z,995.76
2022-10-22T06:12:05.743Z,995.79
2022-10-22T06:13:05.727Z,995.76
2022-10-22T06:14:05.718Z,995.75
2022-10-22T06:15:05.706Z,995.73
2022-10-22T06:16:05.697Z,995.77
2022-10-22T06:17:05.718Z,995.74
2022-10-22T06:18:05.688Z,995.75
2022-10-22T06:19:05.666Z,995.74
2022-10-22T06:21:05.646Z,995.75
2022-10-22T06:22:05.640Z,995.80
2022-10-22T06:23:05.647Z,995.79
2022-10-22T06:24:05.622Z,995.81
2022-10-22T06:25:05.608Z,995.80
2022-10-22T06:26:05.613Z,995.78
2022-10-22T06:27:07.021Z,995.87
2022-10-22T06:28:05.577Z,995.85
2022-10-22T06:29:05.596Z,995.84
2022-10-22T06:30:05.558Z,995.82
2022-10-22T06:31:05.549Z,995.88
2022-10-22T06:32:05.538Z,995.85
2022-10-22T06:33:05.522Z,995.86
2022-10-22T06:34:05.522Z,995.87
2022-10-22T06:35:05.533Z,995.91
2022-10-22T06:36:07.601Z,995.89
2022-10-22T06:37:05.480Z,995.89
2022-10-22T06:38:05.476Z,995.89
2022-10-22T06:39:05.458Z,995.87
2022-10-22T06:40:05.462Z,995.93
2022-10-22T06:41:05.461Z,995.93
2022-10-22T06:42:05.436Z,995.88
2022-10-22T06:43:05.422Z,995.91
2022-10-22T06:44:05.411Z,995.91
2022-10-22T06:45:05.398Z,995.93
2022-10-22T06:46:05.382Z,995.97
2022-10-22T06:47:05.402Z,995.97
2022-10-22T06:48:05.371Z,995.97
2022-10-22T06:49:05.353Z,995.95
2022-10-22T06:50:05.353Z,995.98
2022-10-22T06:51:05.333Z,995.96
2022-10-22T06:52:05.338Z,995.96
2022-10-22T06:53:05.372Z,995.94
2022-10-22T06:54:05.307Z,995.97
2022-10-22T06:55:05.296Z,995.95
2022-10-22T06:56:05.286Z,995.97
2022-10-22T06:57:05.274Z,995.93
2022-10-22T06:58:05.266Z,995.92
2022-10-22T06:59:05.321Z,995.91
2022-10-22T07:00:05.257Z,995.95
2022-10-22T07:01:05.296Z,995.96
2022-10-22T07:02:05.225Z,996.01
2022-10-22T07:03:05.216Z,995.94
2022-10-22T07:04:05.206Z,995.96
2022-10-22T07:05:05.303Z,995.97
2022-10-22T07:06:05.188Z,995.97
2022-10-22T07:07:05.179Z,996.00
2022-10-22T07:08:05.167Z,995.98
2022-10-22T07:09:05.222Z,996.00
2022-10-22T07:10:05.148Z,996.00
2022-10-22T07:11:05.165Z,995.94
2022-10-22T07:12:05.128Z,996.00
2022-10-22T07:13:05.108Z,995.98
2022-10-22T07:14:05.108Z,995.99
2022-10-22T07:15:05.105Z,995.97
2022-10-22T07:16:05.078Z,995.98
2022-10-22T07:17:05.100Z,995.99
2022-10-22T07:18:05.069Z,996.01
2022-10-22T07:19:05.056Z,996.00
2022-10-22T07:20:05.055Z,996.02
2022-10-22T07:21:05.031Z,995.99
2022-10-22T07:22:05.025Z,996.02
2022-10-22T07:23:05.049Z,996.02
2022-10-22T07:24:05.002Z,996.03
2022-10-22T07:25:07.385Z,996.00
2022-10-22T07:26:04.985Z,996.04
2022-10-22T07:27:08.124Z,996.04
2022-10-22T07:28:05.998Z,995.99
2022-10-22T07:29:04.950Z,995.99
2022-10-22T07:30:04.942Z,996.00
2022-10-22T07:31:04.925Z,996.01
2022-10-22T07:32:04.919Z,996.03
2022-10-22T07:33:04.911Z,996.05
2022-10-22T07:34:04.933Z,996.05
2022-10-22T07:35:04.886Z,996.06
2022-10-22T07:36:04.879Z,996.08
2022-10-22T07:37:04.870Z,996.07
2022-10-22T07:38:04.884Z,996.05
2022-10-22T07:39:04.852Z,996.03
2022-10-22T07:40:04.872Z,996.06
2022-10-22T07:41:04.841Z,996.00
2022-10-22T07:42:04.827Z,996.03
2022-10-22T07:43:04.811Z,996.04
2022-10-22T07:44:04.802Z,996.04
2022-10-22T07:45:04.787Z,996.05
2022-10-22T07:46:04.806Z,996.06
2022-10-22T07:47:04.767Z,995.99
2022-10-22T07:48:04.757Z,996.01
2022-10-22T07:49:04.743Z,996.02
2022-10-22T07:50:04.736Z,996.01
2022-10-22T07:51:04.714Z,996.02
2022-10-22T07:52:04.748Z,995.98
2022-10-22T07:53:04.695Z,996.04
2022-10-22T07:54:04.698Z,996.03
2022-10-22T07:55:04.727Z,996.04
2022-10-22T07:56:04.683Z,996.02
2022-10-22T07:57:04.668Z,996.07
2022-10-22T07:58:04.690Z,996.05
2022-10-22T07:59:04.651Z,996.05
2022-10-22T08:00:04.656Z,996.01
2022-10-22T08:01:04.676Z,996.03
2022-10-22T08:02:04.617Z,996.03
2022-10-22T08:03:04.605Z,996.04
2022-10-22T08:04:04.636Z,996.04
2022-10-22T08:05:04.581Z,996.08
2022-10-22T08:06:04.577Z,996.06
2022-10-22T08:07:04.567Z,996.04
2022-10-22T08:08:04.569Z,996.02
2022-10-22T08:09:04.599Z,996.03
2022-10-22T08:10:04.562Z,996.06
2022-10-22T08:11:04.521Z,996.04
2022-10-22T08:12:04.509Z,996.03
2022-10-22T08:13:04.500Z,996.04
2022-10-22T08:14:04.503Z,996.06
2022-10-22T08:15:04.479Z,996.04
2022-10-22T08:16:04.511Z,996.03
2022-10-22T08:17:04.461Z,996.05
2022-10-22T08:18:04.467Z,996.04
2022-10-22T08:19:04.441Z,996.04
2022-10-22T08:20:04.438Z,996.02
2022-10-22T08:21:04.438Z,996.05
2022-10-22T08:22:04.444Z,996.10
2022-10-22T08:23:04.402Z,996.08
2022-10-22T08:24:04.533Z,996.09
2022-10-22T08:25:04.383Z,996.11
2022-10-22T08:26:04.374Z,996.06
2022-10-22T08:27:04.364Z,996.09
2022-10-22T08:28:04.383Z,996.15
2022-10-22T08:29:04.344Z,996.11
2022-10-22T08:30:04.340Z,996.13
2022-10-22T08:31:04.322Z,996.07
2022-10-22T08:32:04.314Z,996.06
2022-10-22T08:33:04.304Z,996.07
2022-10-22T08:34:04.328Z,996.07
2022-10-22T08:35:04.282Z,995.96
2022-10-22T08:36:04.285Z,996.00
2022-10-22T08:37:04.269Z,996.01
2022-10-22T08:38:04.255Z,996.06
2022-10-22T08:39:04.237Z,996.07
2022-10-22T08:40:04.260Z,996.07
2022-10-22T08:41:04.224Z,996.03
2022-10-22T08:42:04.225Z,996.03
2022-10-22T08:43:04.205Z,996.04
2022-10-22T08:44:04.197Z,996.04
2022-10-22T08:45:04.186Z,996.02
2022-10-22T08:46:04.196Z,996.03
2022-10-22T08:47:04.162Z,996.02
2022-10-22T08:48:04.157Z,996.00
2022-10-22T08:49:04.186Z,995.97
2022-10-22T08:50:04.138Z,995.98
2022-10-22T08:51:04.121Z,996.00
2022-10-22T08:52:04.147Z,996.01
2022-10-22T08:53:04.099Z,995.97
2022-10-22T08:54:04.097Z,995.97
2022-10-22T08:55:04.079Z,995.98
2022-10-22T08:56:04.078Z,996.00
2022-10-22T08:57:04.057Z,996.01
2022-10-22T08:58:04.080Z,995.99
2022-10-22T08:59:04.037Z,996.03
2022-10-22T09:00:04.043Z,995.98
2022-10-22T09:01:04.023Z,995.98
2022-10-22T09:02:04.020Z,995.97
2022-10-22T09:03:04.001Z,996.01
2022-10-22T09:04:04.017Z,995.99
2022-10-22T09:05:04.750Z,995.97
2022-10-22T09:06:03.980Z,995.99
2022-10-22T09:07:03.960Z,996.00
2022-10-22T09:08:03.951Z,995.94
2022-10-22T09:09:03.973Z,995.90
2022-10-22T09:10:03.966Z,995.96
2022-10-22T09:11:03.912Z,995.91
2022-10-22T09:12:03.912Z,995.91
2022-10-22T09:13:03.901Z,995.95
2022-10-22T09:14:03.951Z,995.89
2022-10-22T09:15:03.886Z,995.88
2022-10-22T09:16:03.892Z,995.79
2022-10-22T09:17:03.869Z,995.86
2022-10-22T09:18:03.853Z,995.78
2022-10-22T09:19:03.836Z,995.83
2022-10-22T09:20:03.825Z,995.85
2022-10-22T09:21:03.814Z,995.85
2022-10-22T09:22:03.849Z,995.90
2022-10-22T09:23:03.826Z,995.90
2022-10-22T09:24:03.793Z,995.86
2022-10-22T09:25:03.774Z,995.88
2022-10-22T09:26:03.764Z,995.82
2022-10-22T09:27:03.754Z,995.91
2022-10-22T09:28:03.794Z,995.85
2022-10-22T09:29:03.733Z,995.89
2022-10-22T09:30:03.727Z,995.82
2022-10-22T09:31:03.847Z,995.88
2022-10-22T09:32:03.705Z,995.88
2022-10-22T09:33:03.699Z,995.85
2022-10-22T09:34:03.721Z,995.88
2022-10-22T09:35:03.668Z,995.90
2022-10-22T09:36:03.716Z,995.86
2022-10-22T09:37:03.661Z,995.92
2022-10-22T09:38:03.648Z,995.86
2022-10-22T09:39:03.701Z,995.86
2022-10-22T09:40:03.648Z,995.85
2022-10-22T09:41:03.759Z,995.84
2022-10-22T09:42:03.612Z,995.89
2022-10-22T09:43:03.599Z,995.89
2022-10-22T09:44:03.588Z,995.83
2022-10-22T09:45:03.573Z,995.83
2022-10-22T09:46:03.609Z,995.84
2022-10-22T09:47:03.549Z,995.82
2022-10-22T09:48:03.561Z,995.83
2022-10-22T09:49:03.531Z,995.80
2022-10-22T09:50:03.521Z,995.80
2022-10-22T09:51:03.583Z,995.80
2022-10-22T09:52:03.532Z,995.77
2022-10-22T09:53:03.503Z,995.78
2022-10-22T09:54:03.513Z,995.72
2022-10-22T09:55:03.471Z,995.72
2022-10-22T09:56:03.473Z,995.77
2022-10-22T09:57:03.450Z,995.72
2022-10-22T09:58:03.477Z,995.73
2022-10-22T09:59:03.422Z,995.68
2022-10-22T10:00:03.421Z,995.69
2022-10-22T10:01:03.434Z,995.69
2022-10-22T10:02:13.699Z,995.69
2022-10-22T10:03:04.441Z,995.68
2022-10-22T10:04:06.929Z,995.65
2022-10-22T10:05:04.367Z,995.60
2022-10-22T10:06:06.096Z,995.62
2022-10-22T10:07:03.343Z,995.65
2022-10-22T10:08:03.339Z,995.60
2022-10-22T10:09:03.433Z,995.53
2022-10-22T10:10:03.318Z,995.56
2022-10-22T10:11:03.320Z,995.51
2022-10-22T10:12:03.291Z,995.55
2022-10-22T10:13:03.295Z,995.49
2022-10-22T10:14:03.275Z,995.51
2022-10-22T10:15:03.747Z,995.50
2022-10-22T10:16:03.254Z,995.52
2022-10-22T10:17:03.247Z,995.46
2022-10-22T10:18:03.235Z,995.48
2022-10-22T10:19:03.224Z,995.49
2022-10-22T10:20:04.222Z,995.46
2022-10-22T10:21:03.317Z,995.50
2022-10-22T10:22:03.192Z,995.51
2022-10-22T10:23:03.188Z,995.50
2022-10-22T10:24:03.169Z,995.51
2022-10-22T10:25:03.159Z,995.50
2022-10-22T10:26:03.149Z,995.47
2022-10-22T10:27:03.181Z,995.46
2022-10-22T10:28:03.133Z,995.46
2022-10-22T10:29:03.118Z,995.46
2022-10-22T10:30:03.119Z,995.46
2022-10-22T10:31:03.101Z,995.42
2022-10-22T10:32:03.082Z,995.45
2022-10-22T10:33:03.109Z,995.50
2022-10-22T10:34:03.081Z,995.54
2022-10-22T10:35:03.073Z,995.52
2022-10-22T10:36:03.051Z,995.49
2022-10-22T10:37:03.048Z,995.53
2022-10-22T10:38:03.029Z,995.53
2022-10-22T10:39:03.045Z,995.50
2022-10-22T10:40:03.142Z,995.53
2022-10-22T10:41:02.998Z,995.52
2022-10-22T10:42:02.982Z,995.52
2022-10-22T10:43:02.972Z,995.50
2022-10-22T10:44:02.963Z,995.51
2022-10-22T10:45:02.982Z,995.49
2022-10-22T10:46:02.943Z,995.52
2022-10-22T10:47:02.936Z,995.51
2022-10-22T10:48:02.922Z,995.49
2022-10-22T10:49:02.912Z,995.52
2022-10-22T10:50:02.901Z,995.54
2022-10-22T10:51:02.922Z,995.47
2022-10-22T10:52:02.879Z,995.50
2022-10-22T10:53:02.880Z,995.50
2022-10-22T10:54:02.864Z,995.48
2022-10-22T10:55:02.860Z,995.48
2022-10-22T10:56:02.847Z,995.49
2022-10-22T10:57:02.856Z,995.51
2022-10-22T10:58:02.814Z,995.45
2022-10-22T10:59:02.807Z,995.47
2022-10-22T11:00:02.805Z,995.48
2022-10-22T11:01:02.798Z,995.49
2022-10-22T11:02:02.776Z,995.50
2022-10-22T11:03:02.799Z,995.51
2022-10-22T11:04:02.756Z,995.50
2022-10-22T11:05:02.744Z,995.49
2022-10-22T11:06:02.738Z,995.50
2022-10-22T11:07:11.033Z,995.50
2022-10-22T11:08:03.740Z,995.48
2022-10-22T11:09:02.827Z,995.51
2022-10-22T11:10:02.698Z,995.50
2022-10-22T11:11:02.686Z,995.48
2022-10-22T11:12:02.680Z,995.46
2022-10-22T11:13:02.658Z,995.48
2022-10-22T11:14:02.713Z,995.47
2022-10-22T11:15:02.650Z,995.48
2022-10-22T11:16:02.639Z,995.48
2022-10-22T11:17:02.619Z,995.42
2022-10-22T11:18:02.615Z,995.45
2022-10-22T11:19:02.598Z,995.50
2022-10-22T11:20:02.650Z,995.48
2022-10-22T11:21:02.581Z,995.45
2022-10-22T11:22:02.573Z,995.45
2022-10-22T11:23:18.723Z,995.48
2022-10-22T11:24:03.553Z,995.48
2022-10-22T11:25:02.550Z,995.49
2022-10-22T11:26:02.551Z,995.47
2022-10-22T11:27:02.522Z,995.45
2022-10-22T11:28:07.853Z,995.50
2022-10-22T11:29:03.511Z,995.49
2022-10-22T11:30:02.482Z,995.47
2022-10-22T11:31:02.488Z,995.41
2022-10-22T11:32:02.503Z,995.44
2022-10-22T11:33:02.463Z,995.45
2022-10-22T11:34:09.962Z,995.40
2022-10-22T11:35:03.434Z,995.42
2022-10-22T11:36:02.424Z,995.38
2022-10-22T11:37:02.413Z,995.40
2022-10-22T11:38:02.424Z,995.36
2022-10-22T11:39:02.395Z,995.38
2022-10-22T11:40:02.384Z,995.39
2022-10-22T11:41:02.373Z,995.35
2022-10-22T11:42:02.356Z,995.35
2022-10-22T11:43:02.363Z,995.38
2022-10-22T11:44:02.373Z,995.39
2022-10-22T11:45:02.336Z,995.40
2022-10-22T11:46:02.316Z,995.36
2022-10-22T11:47:02.315Z,995.39
2022-10-22T11:48:02.305Z,995.39
2022-10-22T11:49:02.299Z,995.34
2022-10-22T11:50:02.306Z,995.38
2022-10-22T11:51:02.277Z,995.39
2022-10-22T11:52:04.925Z,995.38
2022-10-22T11:53:02.320Z,995.38
2022-10-22T11:54:02.242Z,995.33
2022-10-22T11:55:02.228Z,995.33
2022-10-22T11:56:02.240Z,995.35
2022-10-22T11:57:02.209Z,995.36
2022-10-22T11:58:02.198Z,995.37
2022-10-22T11:59:02.188Z,995.31
2022-10-22T12:00:02.203Z,995.31
2022-10-22T12:01:02.177Z,995.31
2022-10-22T12:02:02.190Z,995.32
2022-10-22T12:03:02.151Z,995.32
2022-10-22T12:04:02.133Z,995.28
2022-10-22T12:05:02.128Z,995.31
2022-10-22T12:06:02.113Z,995.35
2022-10-22T12:07:02.120Z,995.28
2022-10-22T12:08:02.119Z,995.30
2022-10-22T12:09:02.161Z,995.34
2022-10-22T12:10:02.071Z,995.29
2022-10-22T12:11:02.064Z,995.30
2022-10-22T12:12:02.052Z,995.34
2022-10-22T12:13:02.042Z,995.31
2022-10-22T12:14:02.057Z,995.32
2022-10-22T12:15:02.022Z,995.25
2022-10-22T12:16:02.010Z,995.31
2022-10-22T12:17:02.028Z,995.30
2022-10-22T12:18:02.012Z,995.28
2022-10-22T12:19:01.987Z,995.29
2022-10-22T12:20:02.685Z,995.28
2022-10-22T12:21:01.955Z,995.29
2022-10-22T12:22:01.943Z,995.22
2022-10-22T12:23:01.936Z,995.17
2022-10-22T12:24:01.935Z,995.20
2022-10-22T12:25:01.916Z,995.19
2022-10-22T12:26:01.957Z,995.15
2022-10-22T12:27:01.895Z,995.17
2022-10-22T12:28:01.884Z,995.20
2022-10-22T12:29:01.874Z,995.19
2022-10-22T12:30:01.862Z,995.19
2022-10-22T12:31:01.854Z,995.14